Latest Weather Observations for Barimunya

IDW60801

Issued at 12:35 pm WST Friday 31 October 2014 (issued every 30 minutes, with the page automatically refreshed every 10 minutes)

About weather observations | Map of weather stations | Latest weather observations for WA | Other Formats
Station Details ID: 505053 Name: BARIMUNYA Lat: -22.67 Lon: 119.16 Height: 629.17 m
Data from the previous 72 hours. | See also: Recent months for locations in Western Australia
Date/Time
WST
Temp
°C
App
Temp
°C
Dew
Point
Rel
Hum
%
Delta-T
°C
Wind Press
QNH
hPa
Press
MSL
hPa
Rain
since 9 am
mm
Dir
 
Spd
km/h
Gust
km/h
Spd
kts
Gust
kts
31/12:30pm 36.5 28.6 1.3 11 18.4 W 32 50 17 27 1011.6 1007.4 0.0
31/12:00pm 36.0 27.9 0.9 11 18.2 W 33 52 18 28 1011.9 1007.8 0.0
31/11:56am 36.3 28.8 1.2 11 18.3 W 30 48 16 26 1011.9 1007.8 0.0
31/11:30am 34.8 26.9 1.2 12 17.4 W 32 48 17 26 1012.4 1008.2 0.0
31/11:28am 35.6 28.4 0.6 11 18.0 W 28 46 15 25 1012.4 1008.2 0.0
31/11:00am 35.0 27.5 1.4 12 17.5 WSW 30 44 16 24 1012.7 1008.5 0.0
31/10:44am 34.3 27.1 0.8 12 17.2 WSW 28 46 15 25 1013.0 1008.8 0.0
31/10:30am 34.3 27.9 0.8 12 17.2 SW 24 37 13 20 1013.2 1009.1 0.0
31/10:00am 32.7 24.9 1.7 14 16.0 WSW 32 43 17 23 1013.6 1009.5 0.0
31/09:30am 32.3 26.1 2.4 15 15.5 SW 24 35 13 19 1013.7 1009.6 0.0
31/09:00am 30.9 26.1 4.6 19 14.1 SW 19 30 10 16 1014.0 1009.8 0.0
31/08:30am 29.7 24.8 5.1 21 13.2 SSW 20 30 11 16 1014.2 1010.0 0.0
31/08:00am 29.0 23.3 5.1 22 12.7 S 24 30 13 16 1014.2 1010.0 0.0
31/07:30am 28.6 23.8 4.8 22 12.6 S 19 26 10 14 1014.1 1009.9 0.0
31/07:00am 27.8 24.9 4.8 23 12.1 SW 9 17 5 9 1014.1 1009.9 0.0
31/06:30am 26.6 23.3 4.4 24 11.5 SW 11 15 6 8 1013.7 1009.6 0.0
31/06:00am 25.8 22.1 4.3 25 11.1 SW 13 15 7 8 1013.3 1009.2 0.0
31/05:30am 25.0 22.0 4.2 26 10.7 SSW 9 13 5 7 1013.0 1008.8 0.0
31/05:00am 25.7 22.3 4.2 25 11.1 SW 11 13 6 7 1012.7 1008.5 0.0
31/04:30am 26.0 22.2 3.9 24 11.3 SW 13 15 7 8 1012.4 1008.2 0.0
31/04:00am 26.4 22.7 4.2 24 11.5 WSW 13 15 7 8 1012.0 1007.9 0.0
31/03:30am 27.0 23.6 4.1 23 11.9 SW 11 15 6 8 1011.9 1007.8 0.0
31/03:00am 27.9 23.3 3.6 21 12.6 SW 17 20 9 11 1011.8 1007.7 0.0
31/02:30am 28.5 23.0 4.1 21 12.8 WSW 22 32 12 17 1011.9 1007.8 0.0
31/02:00am 29.1 23.2 3.9 20 13.2 WSW 24 35 13 19 1011.9 1007.8 0.0
31/01:30am 28.9 24.3 3.7 20 13.1 WSW 17 24 9 13 1012.1 1008.0 0.0
31/01:00am 29.4 24.5 4.1 20 13.3 WSW 19 24 10 13 1012.4 1008.2 0.0
31/12:30am 29.3 25.5 4.0 20 13.3 WSW 13 20 7 11 1012.6 1008.4 0.0
31/12:00am 29.6 25.3 3.5 19 13.6 WSW 15 20 8 11 1012.9 1008.7 0.0
 
Date/Time
WST
Temp
°C
App
Temp
°C
Dew
Point
Rel
Hum
%
Delta-T
°C
Wind Press
QNH
hPa
Press
MSL
hPa
Rain
since 9 am
mm
Dir
 
Spd
km/h
Gust
km/h
Spd
kts
Gust
kts
30/11:30pm 30.3 25.3 3.4 18 14.0 WSW 19 28 10 15 1013.1 1008.9 0.0
30/11:00pm 31.0 25.7 3.1 17 14.6 WSW 20 41 11 22 1013.1 1008.9 0.0
30/10:30pm 30.6 26.0 3.6 18 14.2 WSW 17 22 9 12 1013.1 1008.9 0.0
30/10:00pm 29.6 26.3 4.3 20 13.4 W 11 15 6 8 1013.1 1008.9 0.0
30/09:30pm 30.2 27.6 4.0 19 13.8 SW 7 9 4 5 1012.8 1008.6 0.0
30/09:00pm 31.1 28.1 4.0 18 14.4 SW 9 13 5 7 1012.7 1008.5 0.0
30/08:30pm 31.4 28.8 4.2 18 14.5 SW 7 11 4 6 1012.7 1008.5 0.0
30/08:00pm 32.7 29.2 3.6 16 15.5 WSW 11 15 6 8 1012.5 1008.3 0.0
30/07:30pm 33.4 28.9 4.2 16 15.7 WSW 17 22 9 12 1012.3 1008.1 0.0
30/07:00pm 34.1 29.5 3.8 15 16.3 WSW 17 24 9 13 1011.9 1007.8 0.0
30/06:30pm 34.8 29.8 3.4 14 16.8 W 19 24 10 13 1011.4 1007.2 0.0
30/06:00pm 35.7 31.0 3.0 13 17.5 W 17 28 9 15 1011.2 1007.0 0.0
30/05:30pm 36.7 31.3 2.7 12 18.2 W 20 28 11 15 1010.9 1006.7 0.0
30/05:00pm 36.6 32.6 2.6 12 18.2 WSW 13 19 7 10 1010.9 1006.7 0.0
30/04:30pm 36.3 30.9 2.4 12 18.0 SW 20 28 11 15 1010.7 1006.5 0.0
30/04:00pm 36.2 30.0 2.3 12 18.0 W 24 32 13 17 1010.8 1006.6 0.0
30/03:30pm 36.7 32.3 2.7 12 18.2 W 15 22 8 12 1010.9 1006.7 0.0
30/03:00pm 37.3 33.0 3.1 12 18.5 W 15 26 8 14 1011.1 1006.9 0.0
30/02:30pm 37.2 31.5 3.1 12 18.4 W 22 32 12 17 1011.3 1007.1 0.0
30/02:00pm 36.7 32.5 3.8 13 17.9 NW 15 24 8 13 1011.5 1007.3 0.0
30/01:30pm 36.7 33.6 3.8 13 17.9 WNW 9 22 5 12 1011.9 1007.8 0.0
30/01:00pm 38.1 32.9 3.8 12 18.8 W 20 35 11 19 1012.4 1008.2 0.0
30/12:30pm 37.0 30.2 2.9 12 18.3 W 28 41 15 22 1012.9 1008.7 0.0
30/12:00pm 36.0 31.3 3.3 13 17.6 W 17 24 9 13 1013.3 1009.2 0.0
30/11:30am 36.2 31.5 3.4 13 17.7 WSW 17 26 9 14 1013.5 1009.4 0.0
30/11:00am 35.2 31.0 3.7 14 17.0 WSW 15 30 8 16 1014.0 1009.8 0.0
30/10:30am 34.1 30.3 3.8 15 16.3 SSW 13 20 7 11 1014.4 1010.2 0.0
30/10:00am 33.6 28.6 3.4 15 16.1 W 19 22 10 12 1014.9 1010.8 0.0
30/09:30am 33.0 28.4 3.9 16 15.6 SSW 17 26 9 14 1015.2 1011.1 0.0
30/09:00am 32.0 28.0 4.7 18 14.7 S 15 20 8 11 1015.4 1011.3 0.0
30/08:30am 31.7 27.0 5.3 19 14.3 S 19 26 10 14 1015.5 1011.4 0.0
30/08:00am 30.5 24.8 5.0 20 13.7 S 24 30 13 16 1015.5 1011.4 0.0
30/07:30am 29.5 24.7 5.6 22 12.9 S 20 28 11 15 1015.3 1011.2 0.0
30/07:00am 29.0 24.3 5.1 22 12.7 SSW 19 24 10 13 1015.2 1011.1 0.0
30/06:30am 28.0 24.9 5.6 24 12.0 S 11 17 6 9 1014.9 1010.8 0.0
30/06:00am 26.2 23.0 5.2 26 11.0 SSW 11 13 6 7 1014.7 1010.6 0.0
30/05:30am 25.7 22.8 4.8 26 10.9 SSW 9 11 5 6 1014.5 1010.3 0.0
30/05:00am 26.1 23.1 4.0 24 11.4 SW 9 13 5 7 1014.2 1010.0 0.0
30/04:30am 27.1 23.7 4.2 23 11.9 SW 11 17 6 9 1014.0 1009.8 0.0
30/04:00am 27.7 23.6 4.1 22 12.3 SW 15 22 8 12 1013.8 1009.7 0.0
30/03:30am 27.6 23.8 4.0 22 12.3 SW 13 17 7 9 1013.8 1009.7 0.0
30/03:00am 27.6 24.2 4.0 22 12.3 SW 11 19 6 10 1013.6 1009.5 0.0
30/02:30am 28.0 24.5 3.7 21 12.6 SW 11 15 6 8 1013.5 1009.4 0.0
30/02:00am 28.5 24.6 3.4 20 13.0 SW 13 20 7 11 1013.5 1009.4 0.0
30/01:30am 26.8 24.2 3.3 22 12.0 SW 6 9 3 5 1013.6 1009.5 0.0
30/01:00am 27.9 24.8 3.6 21 12.6 WSW 9 13 5 7 1013.8 1009.7 0.0
30/12:30am 29.2 24.9 3.2 19 13.4 WSW 15 19 8 10 1014.0 1009.8 0.0
30/12:00am 29.8 25.6 3.7 19 13.7 W 15 20 8 11 1014.0 1009.8 0.0
 
Date/Time
WST
Temp
°C
App
Temp
°C
Dew
Point
Rel
Hum
%
Delta-T
°C
Wind Press
QNH
hPa
Press
MSL
hPa
Rain
since 9 am
mm
Dir
 
Spd
km/h
Gust
km/h
Spd
kts
Gust
kts
29/11:30pm 30.2 25.5 3.3 18 14.0 W 17 20 9 11 1014.1 1009.9 0.0
29/11:00pm 30.8 26.2 3.8 18 14.2 W 17 20 9 11 1014.2 1010.0 0.0
29/10:30pm 32.1 26.8 3.1 16 15.2 W 20 28 11 15 1014.3 1010.1 0.0
29/10:00pm 32.5 27.2 5.1 18 14.9 WNW 22 30 12 16 1014.3 1010.1 0.0
29/09:30pm 32.5 29.1 5.9 19 14.6 N 13 17 7 9 1014.0 1009.8 0.0
29/09:00pm 32.9 30.4 4.6 17 15.3 W 7 9 4 5 1013.8 1009.7 0.0
29/08:30pm 33.3 31.0 5.0 17 15.4 WNW 6 9 3 5 1013.7 1009.6 0.0
29/08:00pm 34.9 31.2 4.4 15 16.6 WNW 13 19 7 10 1013.5 1009.4 0.0
29/07:30pm 34.5 30.5 5.0 16 16.2 NNW 15 20 8 11 1013.1 1008.9 0.0
29/07:00pm 34.9 30.4 4.4 15 16.6 N 17 22 9 12 1012.6 1008.4 0.0
29/06:30pm 35.4 30.8 3.8 14 17.1 NNW 17 24 9 13 1012.3 1008.1 0.0
29/06:00pm 36.1 32.2 3.3 13 17.7 NNW 13 19 7 10 1012.0 1007.9 0.0
29/05:30pm 36.5 31.5 3.7 13 17.8 NNW 19 24 10 13 1011.8 1007.7 0.0
29/05:00pm 37.0 31.9 4.0 13 18.1 NNW 20 28 11 15 1011.6 1007.4 0.0
29/04:30pm 37.7 32.7 3.4 12 18.7 N 19 24 10 13 1011.5 1007.3 0.0
29/04:00pm 38.5 33.6 4.1 12 19.0 NNW 19 33 10 18 1011.4 1007.2 0.0
29/03:30pm 38.8 32.6 4.3 12 19.1 NNW 26 35 14 19 1011.5 1007.3 0.0
29/03:00pm 38.9 34.4 4.4 12 19.2 NW 17 39 9 21 1011.6 1007.4 0.0
29/02:30pm 38.7 34.0 3.0 11 19.4 N 17 30 9 16 1011.8 1007.7 0.0
29/02:13pm 38.8 32.0 3.1 11 19.4 NNW 28 48 15 26 1011.9 1007.8 0.0
29/02:00pm 37.9 32.9 3.6 12 18.7 NNW 19 33 10 18 1012.1 1008.0 0.0
29/01:30pm 38.9 33.1 4.4 12 19.2 NW 24 39 13 21 1012.6 1008.4 0.0
29/01:00pm 38.1 32.9 3.8 12 18.8 WNW 20 30 11 16 1013.0 1008.8 0.0
29/12:30pm 38.6 33.7 4.1 12 19.0 WNW 19 26 10 14 1013.4 1009.3 0.0
29/12:00pm 37.3 33.2 4.3 13 18.2 N 15 28 8 15 1013.7 1009.6 0.0
29/11:30am 37.1 32.0 3.0 12 18.4 W 19 24 10 13 1014.1 1009.9 0.0
29/11:00am 35.6 31.6 5.0 15 16.9 W 15 30 8 16 1014.4 1010.2 0.0
29/10:30am 34.5 31.6 6.7 18 15.7 WNW 11 20 6 11 1014.8 1010.7 0.0
29/10:00am 34.4 31.9 8.2 20 15.1 N 11 28 6 15 1015.2 1011.1 0.0
29/09:30am 32.4 29.6 8.6 23 13.7 N 13 19 7 10 1015.2 1011.1 0.0
29/09:00am 31.8 29.2 9.3 25 13.0 N 13 22 7 12 1015.5 1011.4 0.0
29/08:30am 30.2 26.9 9.7 28 11.9 NNW 17 24 9 13 1015.4 1011.3 0.0
29/08:00am 28.8 25.2 10.5 32 10.7 N 20 28 11 15 1015.5 1011.4 0.0
29/07:30am 27.9 24.7 11.9 37 9.5 N 20 28 11 15 1015.3 1011.2 0.0
29/07:00am 26.5 24.4 14.6 48 7.3 N 19 24 10 13 1015.4 1011.3 0.0
29/06:30am 25.4 25.2 14.8 52 6.5 N 9 15 5 8 1015.3 1011.2 0.0
29/06:00am 24.0 23.2 14.1 54 6.0 NNE 11 15 6 8 1015.1 1011.0 0.0
29/05:30am 24.1 23.6 13.9 53 6.2 NNW 9 11 5 6 1014.7 1010.6 0.0
29/05:00am 24.1 23.6 13.9 53 6.2 NW 9 11 5 6 1014.7 1010.6 0.0
29/04:30am 24.6 24.5 13.8 51 6.5 WNW 7 11 4 6 1014.5 1010.3 0.0
29/04:00am 25.3 24.0 13.8 49 7.0 N 13 19 7 10 1014.4 1010.2 0.0
29/03:30am 25.3 24.7 13.5 48 7.1 N 9 17 5 9 1014.3 1010.1 0.0
29/03:00am 25.8 25.2 13.6 47 7.4 NNE 9 17 5 9 1014.5 1010.3 0.0
29/02:30am 26.1 24.8 13.6 46 7.6 NNE 13 19 7 10 1014.6 1010.4 0.0
29/02:00am 26.2 24.1 13.7 46 7.6 NE 17 22 9 12 1014.7 1010.6 0.0
29/01:30am 26.5 24.8 13.6 45 7.8 NE 15 20 8 11 1014.9 1010.8 0.0
29/01:00am 26.5 25.5 13.3 44 8.0 NE 11 15 6 8 1014.9 1010.8 0.0
29/12:30am 26.8 24.6 13.2 43 8.2 NNE 17 28 9 15 1015.1 1011.0 0.0
29/12:00am 27.2 23.6 13.2 42 8.5 NE 24 33 13 18 1015.2 1011.1 0.0
 
Date/Time
WST
Temp
°C
App
Temp
°C
Dew
Point
Rel
Hum
%
Delta-T
°C
Wind Press
QNH
hPa
Press
MSL
hPa
Rain
since 9 am
mm
Dir
 
Spd
km/h
Gust
km/h
Spd
kts
Gust
kts
28/11:30pm 27.6 24.2 12.4 39 9.1 NE 22 30 12 16 1015.7 1011.5 0.0
28/11:00pm 28.2 23.2 12.1 37 9.6 NE 30 44 16 24 1015.9 1011.7 0.0
28/10:30pm 29.2 24.9 12.2 35 10.2 ENE 26 43 14 23 1015.8 1011.6 0.0
28/10:00pm 29.9 27.3 11.9 33 10.8 NE 17 24 9 13 1015.7 1011.5 0.0
28/09:30pm 30.7 27.2 10.1 28 12.0 NE 19 24 10 13 1015.1 1011.0 0.0
28/09:00pm 30.8 29.1 13.6 35 10.6 NE 15 22 8 12 1014.8 1010.7 0.0
28/08:30pm 31.5 30.2 13.7 33 11.0 NNW 13 19 7 10 1014.4 1010.2 0.0
28/08:00pm 32.1 29.7 13.8 33 11.4 N 19 28 10 15 1013.7 1009.6 0.0
28/07:30pm 32.9 29.8 13.5 30 12.0 N 22 32 12 17 1013.5 1009.4 0.0
28/07:00pm 34.3 31.2 10.2 23 14.3 NNW 17 26 9 14 1012.9 1008.7 0.0
28/06:30pm 34.5 32.2 10.4 23 14.4 N 13 17 7 9 1012.5 1008.3 0.0
28/06:00pm 34.7 31.9 9.9 22 14.7 N 15 24 8 13 1012.0 1007.9 0.0
28/05:30pm 35.5 30.4 9.1 20 15.5 NNW 26 35 14 19 1011.6 1007.4 0.0
28/05:00pm 36.2 31.8 8.9 19 16.0 NNW 22 30 12 16 1011.2 1007.0 0.0
28/04:30pm 36.5 31.6 8.4 18 16.4 NNW 24 32 13 17 1011.1 1006.9 0.0
28/04:00pm 36.6 31.9 9.2 19 16.2 NW 24 28 13 15 1011.2 1007.0 0.0
28/03:30pm 36.2 32.9 8.1 18 16.3 N 15 26 8 14 1011.4 1007.2 0.0
28/03:00pm 36.0 31.5 7.1 17 16.5 NNE 20 26 11 14 1011.8 1007.7 0.0
28/02:30pm 36.1 31.8 8.0 18 16.3 NNE 20 26 11 14 1012.0 1007.9 0.0
28/02:00pm 36.0 32.7 8.0 18 16.2 NNE 15 24 8 13 1012.4 1008.2 0.0
28/01:30pm 36.0 32.1 7.1 17 16.5 NNE 17 26 9 14 1012.7 1008.5 0.0
28/01:00pm 36.3 33.2 7.4 17 16.6 NNE 13 22 7 12 1013.0 1008.8 0.0

Other Formats:

Comma delimited format used in spreadsheet applications
http://www.bom.gov.au/fwo/IDW60801/IDW60801.99313.axf

JavaScript Object Notation format (JSON) in row-major order
http://www.bom.gov.au/fwo/IDW60801/IDW60801.99313.json